Time;durP1;ratioP1;P1;durP2;ratioP2;P2;SDS_P1;SDS_P2;PMS_P1;PMS_P2;Temp;Humidity;BMP_temperature;BMP_pressure;BME280_temperature;BME280_humidity;BME280_pressure;Samples;Min_cycle;Max_cycle;Signal;HPM_P1;HPM_P2
2022/09/22 00:00:21;;;;;;;4.63;2.75;;;7.20;99.90;;;;;;6197205;23;20340;-85
2022/09/22 00:02:46;;;;;;;3.17;2.30;;;7.20;99.90;;;;;;6170611;23;20005;-84
2022/09/22 00:05:13;;;;;;;2.25;1.88;;;7.20;99.90;;;;;;6192050;23;20382;-78
2022/09/22 00:07:39;;;;;;;3.40;2.25;;;7.10;99.90;;;;;;6201557;23;20028;-79
2022/09/22 00:10:06;;;;;;;6.88;2.08;;;7.20;99.90;;;;;;6201644;23;20432;-78
2022/09/22 00:12:32;;;;;;;3.45;2.42;;;7.20;99.90;;;;;;6203343;23;19997;-76
2022/09/22 00:14:57;;;;;;;3.83;2.25;;;7.20;99.90;;;;;;6204203;23;20020;-77
2022/09/22 00:17:23;;;;;;;3.55;2.42;;;7.20;99.90;;;;;;6201116;23;20048;-80
2022/09/22 00:19:49;;;;;;;5.35;2.58;;;7.10;99.90;;;;;;6202817;23;20028;-80
2022/09/22 00:22:14;;;;;;;2.78;2.40;;;7.10;99.90;;;;;;6203829;23;20001;-78
2022/09/22 00:24:41;;;;;;;4.43;2.30;;;7.00;99.90;;;;;;6205021;23;19997;-78
2022/09/22 00:27:07;;;;;;;3.15;2.60;;;7.00;99.90;;;;;;6203236;23;20020;-79
2022/09/22 00:29:33;;;;;;;5.40;3.10;;;7.00;99.90;;;;;;6203176;23;20052;-78
2022/09/22 00:32:00;;;;;;;4.88;2.88;;;7.00;99.90;;;;;;6203996;23;19997;-78
2022/09/22 00:34:26;;;;;;;4.65;2.40;;;6.90;99.90;;;;;;6203782;23;20005;-79
2022/09/22 00:36:53;;;;;;;2.78;2.38;;;6.90;99.90;;;;;;6203427;23;19997;-79
2022/09/22 00:39:18;;;;;;;3.42;2.13;;;6.90;99.90;;;;;;6225495;23;20027;-78
2022/09/22 00:41:47;;;;;;;3.40;2.35;;;6.80;99.90;;;;;;6199096;23;20001;-78
2022/09/22 00:44:35;;;;;;;3.17;2.20;;;6.90;99.90;;;;;;6225192;23;20088;-79
2022/09/22 00:47:08;;;;;;;3.40;2.30;;;6.80;99.90;;;;;;6203020;23;19993;-80
2022/09/22 00:49:49;;;;;;;2.60;2.13;;;6.80;99.90;;;;;;6227643;22;20009;-80
2022/09/22 00:52:50;;;;;;;2.08;1.67;;;6.70;99.90;;;;;;6201265;23;21854;-79
2022/09/22 00:55:37;;;;;;;2.63;1.98;;;6.80;99.90;;;;;;6175240;23;20064;-80
2022/09/22 00:58:07;;;;;;;2.58;2.00;;;6.80;99.90;;;;;;6227075;23;20001;-79
2022/09/22 01:00:32;;;;;;;1.95;1.65;;;6.80;99.90;;;;;;6202393;23;20020;-78
2022/09/22 01:03:00;;;;;;;2.67;2.22;;;6.70;99.90;;;;;;6201763;23;20336;-80
2022/09/22 01:05:28;;;;;;;3.05;2.30;;;6.70;99.90;;;;;;6210353;23;20585;-80
2022/09/22 01:07:54;;;;;;;3.35;2.20;;;6.70;99.90;;;;;;6231582;23;20449;-80
2022/09/22 01:10:21;;;;;;;3.53;2.28;;;6.70;99.90;;;;;;6232772;23;20005;-80
2022/09/22 01:13:21;;;;;;;3.58;2.10;;;6.70;99.90;;;;;;6232711;23;20032;-78
2022/09/22 01:16:02;;;;;;;3.30;2.00;;;6.70;99.90;;;;;;6204272;23;20084;-79
2022/09/22 01:18:42;;;;;;;3.17;2.03;;;6.60;99.90;;;;;;6233531;23;20007;-77
2022/09/22 01:21:31;;;;;;;3.65;2.00;;;6.60;99.90;;;;;;6205408;23;20028;-79
2022/09/22 01:24:18;;;;;;;3.15;2.08;;;6.60;99.90;;;;;;6230976;23;20005;-80
2022/09/22 01:27:02;;;;;;;2.53;1.92;;;6.60;99.90;;;;;;6231239;23;20009;-80
2022/09/22 01:29:45;;;;;;;2.78;2.17;;;6.60;99.90;;;;;;6205494;23;20030;-78
2022/09/22 01:32:43;;;;;;;3.10;2.22;;;6.60;99.90;;;;;;6234686;23;20005;-77
2022/09/22 01:35:19;;;;;;;3.03;2.42;;;6.60;99.90;;;;;;6228750;23;20001;-80
2022/09/22 01:38:07;;;;;;;4.15;2.40;;;6.50;99.90;;;;;;6235043;23;20052;-78
2022/09/22 01:40:46;;;;;;;3.58;2.60;;;6.50;99.90;;;;;;6240404;23;19996;-78
2022/09/22 01:43:31;;;;;;;3.10;1.85;;;6.50;99.90;;;;;;6240426;23;19985;-77
2022/09/22 01:46:00;;;;;;;5.72;2.60;;;6.50;99.90;;;;;;6237456;23;20013;-79
2022/09/22 01:48:32;;;;;;;3.40;2.72;;;6.50;99.90;;;;;;6233685;23;19984;-78
2022/09/22 01:51:30;;;;;;;5.32;2.55;;;6.40;99.90;;;;;;6209563;23;20015;-78
2022/09/22 01:54:06;;;;;;;4.63;2.80;;;6.40;99.90;;;;;;6231757;23;20004;-78
2022/09/22 01:56:33;;;;;;;4.35;2.70;;;6.40;99.90;;;;;;6232532;23;19996;-78
2022/09/22 01:59:03;;;;;;;4.32;3.03;;;6.30;99.90;;;;;;6232277;23;20126;-78
2022/09/22 02:01:36;;;;;;;3.42;2.58;;;6.20;99.90;;;;;;6232840;23;20048;-79
2022/09/22 02:04:25;;;;;;;4.00;2.72;;;6.20;99.90;;;;;;6232590;23;20001;-78
2022/09/22 02:07:06;;;;;;;2.72;2.25;;;6.10;99.90;;;;;;6231744;23;20012;-80
2022/09/22 02:09:34;;;;;;;4.45;3.17;;;6.00;99.90;;;;;;6232107;23;20007;-79
2022/09/22 02:12:02;;;;;;;4.20;3.20;;;6.00;99.90;;;;;;6232646;23;20000;-79
2022/09/22 02:14:28;;;;;;;3.50;3.00;;;6.00;99.90;;;;;;6232305;23;19996;-80
2022/09/22 02:16:55;;;;;;;4.55;3.05;;;5.90;99.90;;;;;;6232080;23;19997;-79
2022/09/22 02:19:27;;;;;;;3.05;2.35;;;5.90;99.90;;;;;;6203984;23;20023;-79
2022/09/22 02:21:53;;;;;;;3.22;2.50;;;5.90;99.90;;;;;;6203191;23;20011;-78
2022/09/22 02:24:37;;;;;;;3.35;2.05;;;5.90;99.90;;;;;;6230425;23;20308;-78
2022/09/22 02:27:37;;;;;;;3.80;2.92;;;5.90;99.90;;;;;;6235172;23;20013;-78
2022/09/22 02:30:09;;;;;;;2.80;2.40;;;5.90;99.90;;;;;;6183823;23;20028;-78
2022/09/22 02:32:38;;;;;;;4.70;2.83;;;5.80;99.90;;;;;;6233869;23;20052;-79
2022/09/22 02:35:06;;;;;;;3.40;2.35;;;5.80;99.90;;;;;;6232783;23;19997;-78
2022/09/22 02:37:48;;;;;;;4.07;2.85;;;5.80;99.90;;;;;;6206440;23;20003;-77
2022/09/22 02:40:17;;;;;;;2.88;2.63;;;5.80;99.90;;;;;;6234495;23;19997;-77
2022/09/22 02:42:53;;;;;;;6.72;2.90;;;5.80;99.90;;;;;;6234095;23;20004;-80
2022/09/22 02:45:38;;;;;;;4.00;2.88;;;5.70;99.90;;;;;;6235275;23;20032;-78
2022/09/22 02:48:09;;;;;;;2.33;2.13;;;5.70;99.90;;;;;;6235484;23;20071;-79
2022/09/22 02:50:35;;;;;;;3.55;2.30;;;5.70;99.90;;;;;;6236144;23;20014;-78
2022/09/22 02:53:03;;;;;;;4.13;2.50;;;5.70;99.90;;;;;;6208772;23;20345;-79
2022/09/22 02:55:29;;;;;;;4.28;3.28;;;5.70;99.90;;;;;;6235131;23;20031;-77
2022/09/22 02:57:55;;;;;;;4.47;3.13;;;5.70;99.90;;;;;;6234470;23;20001;-77
2022/09/22 03:00:21;;;;;;;3.65;3.15;;;5.70;99.90;;;;;;6234638;23;20051;-79
2022/09/22 03:02:46;;;;;;;3.35;2.85;;;5.60;99.90;;;;;;6234442;23;20001;-78
2022/09/22 03:05:12;;;;;;;4.03;2.63;;;5.70;99.90;;;;;;6205697;23;20034;-77
2022/09/22 03:07:38;;;;;;;4.50;3.03;;;5.60;99.90;;;;;;6209230;23;20047;-77
2022/09/22 03:10:05;;;;;;;5.15;3.75;;;5.60;99.90;;;;;;6208724;23;20052;-76
2022/09/22 03:12:30;;;;;;;4.93;3.90;;;5.70;99.90;;;;;;6208230;23;20008;-77
2022/09/22 03:14:56;;;;;;;4.30;2.90;;;5.60;99.90;;;;;;6207439;23;20102;-78
2022/09/22 03:17:22;;;;;;;6.97;3.10;;;5.70;99.90;;;;;;6206796;23;19996;-78
2022/09/22 03:19:47;;;;;;;4.47;3.40;;;5.70;99.90;;;;;;6233804;23;19997;-76
2022/09/22 03:22:16;;;;;;;4.15;2.80;;;5.70;99.90;;;;;;6234194;22;19996;-79
2022/09/22 03:24:41;;;;;;;4.45;3.10;;;5.70;99.90;;;;;;6232975;23;20000;-79
2022/09/22 03:27:07;;;;;;;5.05;3.72;;;5.70;99.90;;;;;;6232980;23;20001;-79
2022/09/22 03:29:33;;;;;;;5.28;4.25;;;5.70;99.90;;;;;;6233555;23;20015;-78
2022/09/22 03:31:58;;;;;;;5.05;3.78;;;5.70;99.90;;;;;;6232634;23;20001;-78
2022/09/22 03:34:24;;;;;;;4.75;3.72;;;5.70;99.90;;;;;;6232487;23;20372;-78
2022/09/22 03:36:50;;;;;;;6.75;3.95;;;5.80;99.90;;;;;;6231834;23;19997;-78
2022/09/22 03:39:15;;;;;;;5.50;4.15;;;5.80;99.90;;;;;;6233560;23;20328;-79
2022/09/22 03:41:41;;;;;;;5.25;3.92;;;5.70;99.90;;;;;;6206381;23;20047;-77
2022/09/22 03:44:07;;;;;;;3.78;2.92;;;5.80;99.90;;;;;;6232869;23;20007;-76
2022/09/22 03:46:33;;;;;;;3.95;3.38;;;5.80;99.90;;;;;;6229345;23;20024;-79
2022/09/22 03:48:58;;;;;;;4.38;3.08;;;5.80;99.90;;;;;;6232891;23;20000;-78
2022/09/22 03:51:25;;;;;;;6.07;3.20;;;5.70;99.90;;;;;;6206678;23;20043;-78
2022/09/22 03:53:50;;;;;;;4.10;3.22;;;5.70;99.90;;;;;;6232488;23;20388;-77
2022/09/22 03:56:16;;;;;;;3.78;2.88;;;5.70;99.90;;;;;;6205462;23;20008;-77
2022/09/22 03:58:42;;;;;;;4.03;3.33;;;5.70;99.90;;;;;;6232299;23;19997;-79
2022/09/22 04:01:10;;;;;;;6.60;4.05;;;5.70;99.90;;;;;;6234715;23;19996;-78
2022/09/22 04:03:36;;;;;;;7.60;3.60;;;5.70;99.90;;;;;;6232971;23;20004;-78
2022/09/22 04:06:02;;;;;;;4.20;3.25;;;5.70;99.90;;;;;;6232005;23;20362;-78
2022/09/22 04:08:28;;;;;;;4.63;3.20;;;5.70;99.90;;;;;;6231819;23;20339;-78
2022/09/22 04:10:53;;;;;;;3.83;2.95;;;5.70;99.90;;;;;;6233425;23;20000;-80
2022/09/22 04:13:19;;;;;;;4.45;3.15;;;5.70;99.90;;;;;;6233305;23;20011;-79
2022/09/22 04:15:45;;;;;;;4.43;2.83;;;5.70;99.90;;;;;;6233657;23;19992;-80
2022/09/22 04:18:12;;;;;;;4.47;3.17;;;5.70;99.90;;;;;;6233138;23;20044;-80
2022/09/22 04:20:39;;;;;;;4.13;2.97;;;5.70;99.90;;;;;;6232764;23;20001;-77
2022/09/22 04:23:05;;;;;;;4.45;2.83;;;5.70;99.90;;;;;;6229964;23;20005;-79
2022/09/22 04:25:31;;;;;;;3.17;2.53;;;5.60;99.90;;;;;;6232651;23;20038;-78
2022/09/22 04:27:57;;;;;;;3.75;2.80;;;5.60;99.90;;;;;;6232064;23;20007;-79
2022/09/22 04:30:22;;;;;;;4.32;2.88;;;5.60;99.90;;;;;;6235292;23;20001;-79
2022/09/22 04:32:48;;;;;;;3.40;2.85;;;5.60;99.90;;;;;;6206911;23;20100;-80
2022/09/22 04:35:14;;;;;;;4.57;2.88;;;5.60;99.90;;;;;;6232248;23;19997;-79
2022/09/22 04:37:41;;;;;;;5.10;3.40;;;5.60;99.90;;;;;;6205343;23;20059;-80
2022/09/22 04:40:07;;;;;;;4.35;2.92;;;5.60;99.90;;;;;;6232133;23;20004;-78
2022/09/22 04:42:33;;;;;;;5.63;2.67;;;5.60;99.90;;;;;;6205712;23;20012;-79
2022/09/22 04:45:00;;;;;;;3.20;2.72;;;5.60;99.90;;;;;;6230895;23;20005;-79
2022/09/22 04:47:28;;;;;;;4.28;2.80;;;5.60;99.90;;;;;;6227097;23;20008;-77
2022/09/22 04:49:54;;;;;;;6.82;3.50;;;5.60;99.90;;;;;;6225424;23;20056;-78
2022/09/22 04:52:19;;;;;;;4.78;3.65;;;5.60;99.90;;;;;;6231770;23;20001;-78
2022/09/22 04:54:45;;;;;;;5.55;3.30;;;5.60;99.90;;;;;;6231901;23;20012;-78
2022/09/22 04:57:11;;;;;;;5.25;3.88;;;5.60;99.90;;;;;;6226616;23;20004;-77
2022/09/22 04:59:36;;;;;;;6.18;4.00;;;5.60;99.90;;;;;;6228738;23;20001;-78
2022/09/22 05:02:02;;;;;;;4.30;3.42;;;5.60;99.90;;;;;;6229294;23;20335;-78
2022/09/22 05:04:28;;;;;;;6.50;4.85;;;5.60;99.90;;;;;;6228065;23;20076;-78
2022/09/22 05:06:54;;;;;;;7.43;3.72;;;5.60;99.90;;;;;;6223701;23;20004;-77
2022/09/22 05:09:20;;;;;;;6.13;4.30;;;5.50;99.90;;;;;;6203628;23;20012;-79
2022/09/22 05:11:49;;;;;;;7.15;3.97;;;5.50;99.90;;;;;;6233020;23;20003;-78
2022/09/22 05:14:15;;;;;;;5.82;4.22;;;5.50;99.90;;;;;;6206038;23;20209;-78
2022/09/22 05:16:41;;;;;;;4.88;3.40;;;5.50;99.90;;;;;;6231988;23;20051;-78
2022/09/22 05:19:09;;;;;;;4.78;3.88;;;5.50;99.90;;;;;;6241102;22;20040;-77
2022/09/22 05:21:36;;;;;;;5.78;3.90;;;5.60;99.90;;;;;;6235147;23;20011;-77
2022/09/22 05:24:02;;;;;;;5.25;3.97;;;5.60;99.90;;;;;;6231610;23;20000;-79
2022/09/22 05:26:29;;;;;;;6.00;3.65;;;5.60;99.90;;;;;;6202988;23;20047;-79
2022/09/22 05:28:56;;;;;;;5.28;3.70;;;5.60;99.90;;;;;;6203496;23;20009;-78
2022/09/22 05:31:22;;;;;;;5.03;3.90;;;5.60;99.90;;;;;;6229278;23;20007;-79
2022/09/22 05:33:48;;;;;;;7.50;4.05;;;5.60;99.90;;;;;;6230183;23;20005;-80
2022/09/22 05:36:14;;;;;;;5.28;3.55;;;5.60;99.90;;;;;;6229915;23;20096;-79
2022/09/22 05:38:40;;;;;;;4.97;3.88;;;5.70;99.90;;;;;;6204221;23;20024;-79
2022/09/22 05:41:08;;;;;;;4.97;2.95;;;5.70;99.90;;;;;;6228596;23;20056;-80
2022/09/22 05:43:34;;;;;;;5.07;3.95;;;5.80;99.90;;;;;;6200159;23;20008;-80
2022/09/22 05:45:59;;;;;;;4.20;3.08;;;5.80;99.90;;;;;;6225671;23;20080;-78
2022/09/22 05:48:28;;;;;;;3.80;2.90;;;5.80;99.90;;;;;;6199502;23;20036;-78
2022/09/22 05:50:53;;;;;;;3.67;3.10;;;5.80;99.90;;;;;;6227980;23;20000;-78
2022/09/22 05:53:19;;;;;;;4.85;3.30;;;5.90;99.90;;;;;;6227674;23;20309;-79
2022/09/22 05:55:45;;;;;;;3.42;2.83;;;5.90;99.90;;;;;;6228471;23;20005;-78
2022/09/22 05:58:11;;;;;;;5.93;4.10;;;6.00;99.90;;;;;;6229331;23;20003;-79
2022/09/22 06:00:38;;;;;;;5.63;4.07;;;6.00;99.90;;;;;;6229257;23;20016;-80
2022/09/22 06:03:04;;;;;;;8.15;4.10;;;6.10;99.90;;;;;;6228566;23;19996;-79
2022/09/22 06:05:48;;;;;;;6.18;3.97;;;6.10;99.90;;;;;;6213703;22;20021;-82
2022/09/22 06:08:23;;;;;;;5.38;3.80;;;6.20;99.90;;;;;;6213260;23;20092;-84
2022/09/22 06:10:50;;;;;;;6.57;4.70;;;6.20;99.90;;;;;;6188594;23;20005;-84
2022/09/22 06:13:16;;;;;;;5.78;4.50;;;6.30;99.90;;;;;;6191084;23;20013;-84
2022/09/22 06:15:47;;;;;;;9.52;4.85;;;6.30;99.90;;;;;;6191949;23;19997;-84
2022/09/22 06:18:16;;;;;;;6.65;4.78;;;6.30;99.90;;;;;;6189714;23;20002;-84
2022/09/22 06:20:43;;;;;;;6.00;3.72;;;6.30;99.90;;;;;;6189952;23;20455;-84
2022/09/22 06:23:15;;;;;;;5.95;4.03;;;6.40;99.90;;;;;;6197528;23;20028;-83
2022/09/22 06:25:44;;;;;;;6.05;4.00;;;6.40;99.90;;;;;;6223798;23;20013;-83
2022/09/22 06:28:13;;;;;;;4.20;3.55;;;6.50;99.90;;;;;;6224220;23;20035;-83
2022/09/22 06:30:39;;;;;;;5.63;3.80;;;6.50;99.90;;;;;;6218124;23;20513;-83
2022/09/22 06:33:06;;;;;;;5.80;3.90;;;6.60;99.90;;;;;;6192848;23;20001;-83
2022/09/22 06:35:36;;;;;;;6.28;4.07;;;6.70;99.90;;;;;;6192524;23;20005;-84
2022/09/22 06:38:06;;;;;;;5.15;3.65;;;6.80;99.90;;;;;;6192350;23;20005;-82
2022/09/22 06:40:35;;;;;;;4.65;3.40;;;6.90;99.90;;;;;;6192516;23;20025;-83
2022/09/22 06:43:10;;;;;;;4.03;3.63;;;6.90;99.90;;;;;;6191965;23;20514;-82
2022/09/22 06:45:37;;;;;;;5.80;3.75;;;7.00;99.90;;;;;;6190131;23;20028;-82
2022/09/22 06:48:03;;;;;;;4.03;3.03;;;7.10;99.90;;;;;;6191208;23;20428;-83
2022/09/22 06:51:38;;;;;;;3.83;3.17;;;7.20;99.90;;;;;;6215442;23;20001;-83
2022/09/22 06:54:45;;;;;;;5.78;3.03;;;7.30;99.90;;;;;;6217402;23;20012;-83
2022/09/22 06:57:18;;;;;;;5.70;2.65;;;7.40;99.90;;;;;;6197921;23;20470;-84
2022/09/22 06:59:44;;;;;;;2.92;2.42;;;7.50;99.90;;;;;;6220229;23;20001;-83
2022/09/22 07:02:10;;;;;;;6.47;3.38;;;7.60;99.90;;;;;;6197532;23;20009;-83
2022/09/22 07:04:51;;;;;;;2.78;2.58;;;7.70;99.90;;;;;;6196020;23;20027;-84
2022/09/22 07:07:16;;;;;;;6.07;2.90;;;7.80;99.90;;;;;;6205934;23;19997;-84
2022/09/22 07:09:42;;;;;;;2.60;2.10;;;7.90;99.90;;;;;;6212901;23;20005;-85
2022/09/22 07:12:07;;;;;;;2.83;2.50;;;8.00;99.90;;;;;;6201051;23;20100;-84
2022/09/22 07:14:33;;;;;;;2.65;2.05;;;8.10;99.90;;;;;;6193928;23;20001;-85
2022/09/22 07:16:59;;;;;;;2.45;2.25;;;8.30;99.90;;;;;;6194226;23;20000;-84
2022/09/22 07:19:25;;;;;;;4.78;2.92;;;8.40;99.90;;;;;;6195296;23;20540;-83
2022/09/22 07:21:51;;;;;;;2.55;2.10;;;8.50;99.90;;;;;;6194161;23;20008;-84
2022/09/22 07:24:18;;;;;;;4.60;2.33;;;8.70;99.60;;;;;;6196426;23;20024;-82
2022/09/22 07:26:45;;;;;;;3.13;2.28;;;8.80;99.10;;;;;;6202934;23;20008;-82
2022/09/22 07:29:12;;;;;;;4.38;2.55;;;9.00;98.60;;;;;;6201227;23;20085;-82
2022/09/22 07:31:40;;;;;;;2.85;2.20;;;9.10;97.50;;;;;;6221241;23;20001;-84
2022/09/22 07:34:06;;;;;;;4.63;2.42;;;9.10;96.60;;;;;;6217564;23;20035;-85
2022/09/22 07:36:33;;;;;;;5.60;2.47;;;9.20;96.30;;;;;;6222120;23;20000;-85
2022/09/22 07:39:07;;;;;;;4.57;2.70;;;9.20;96.20;;;;;;6197642;23;20005;-85
2022/09/22 07:41:43;;;;;;;2.40;2.20;;;9.40;96.20;;;;;;6221789;23;20005;-86
2022/09/22 07:46:55;;;;;;;2.35;1.92;;;9.80;95.30;;;;;;6201508;23;20088;-84
2022/09/22 07:49:21;;;;;;;2.50;2.13;;;10.00;94.50;;;;;;6195290;23;20001;-83
2022/09/22 07:51:53;;;;;;;2.92;2.30;;;10.10;94.40;;;;;;6221433;23;19996;-82
2022/09/22 07:54:19;;;;;;;;;;;10.30;93.40;;;;;;6197135;23;20005;-83
2022/09/22 07:56:45;;;;;;;2.45;1.73;;;10.60;93.50;;;;;;6195461;23;19920;-82
2022/09/22 07:59:27;;;;;;;2.92;1.75;;;10.80;92.80;;;;;;6195560;23;20004;-84
2022/09/22 08:02:13;;;;;;;1.77;1.60;;;11.10;92.00;;;;;;6203989;23;20336;-83
2022/09/22 08:04:39;;;;;;;2.70;1.60;;;11.30;91.20;;;;;;6227972;23;19997;-83
2022/09/22 08:07:36;;;;;;;2.42;1.55;;;11.60;90.50;;;;;;6232891;23;20005;-85
2022/09/22 08:10:03;;;;;;;2.92;1.27;;;11.70;87.90;;;;;;6234257;23;20068;-84
2022/09/22 08:12:30;;;;;;;2.22;1.33;;;11.80;87.30;;;;;;6235175;23;20005;-83
2022/09/22 08:14:56;;;;;;;1.50;1.40;;;11.80;85.20;;;;;;6225985;22;20004;-83
2022/09/22 08:17:23;;;;;;;2.58;1.70;;;11.90;85.10;;;;;;6227666;23;20043;-83
2022/09/22 08:19:49;;;;;;;1.23;1.05;;;12.20;85.10;;;;;;6225298;23;20000;-84
2022/09/22 08:23:11;;;;;;;1.10;0.98;;;12.40;82.50;;;;;;6201285;23;20060;-83
2022/09/22 08:25:39;;;;;;;2.60;1.55;;;12.60;81.80;;;;;;6175253;23;20028;-82
2022/09/22 08:28:12;;;;;;;4.35;2.25;;;12.90;79.60;;;;;;6224880;23;19997;-84
2022/09/22 08:30:49;;;;;;;2.85;1.63;;;12.80;78.30;;;;;;6204157;23;20008;-84
2022/09/22 08:33:16;;;;;;;3.83;1.50;;;12.80;78.20;;;;;;6232023;23;20016;-85
2022/09/22 08:36:03;;;;;;;1.58;1.15;;;12.90;78.40;;;;;;6224406;23;20071;-83
2022/09/22 08:38:32;;;;;;;1.60;1.10;;;13.00;77.10;;;;;;6199578;23;20011;-83
2022/09/22 08:41:07;;;;;;;1.65;1.33;;;13.20;76.80;;;;;;6234040;22;20009;-83
2022/09/22 08:43:33;;;;;;;1.38;0.93;;;13.40;76.30;;;;;;6226226;23;20017;-83
2022/09/22 08:46:03;;;;;;;1.20;1.10;;;13.60;76.50;;;;;;6228849;23;19984;-83
2022/09/22 08:51:51;;;;;;;4.10;1.58;;;14.00;73.30;;;;;;6225201;23;20054;-83
2022/09/22 09:01:37;;;;;;;1.98;1.10;;;14.30;72.40;;;;;;6167988;23;20016;-83
2022/09/22 09:04:51;;;;;;;1.55;1.05;;;14.70;71.20;;;;;;6227120;23;20382;-82
2022/09/22 09:08:08;;;;;;;1.73;1.05;;;14.90;69.50;;;;;;6231319;22;20067;-84
2022/09/22 09:11:16;;;;;;;1.92;1.05;;;15.10;69.10;;;;;;6242798;22;20001;-84
2022/09/22 09:14:39;;;;;;;1.20;1.10;;;15.10;69.70;;;;;;6206223;22;20001;-84
2022/09/22 09:17:59;;;;;;;3.13;1.20;;;15.00;68.70;;;;;;6240420;22;19996;-84
2022/09/22 09:20:52;;;;;;;1.80;1.10;;;14.90;68.70;;;;;;6230961;22;20007;-83
2022/09/22 09:23:25;;;;;;;2.33;1.63;;;14.90;69.90;;;;;;6217060;22;20009;-84
2022/09/22 09:25:54;;;;;;;1.60;1.23;;;15.00;69.40;;;;;;6216480;22;20007;-84
2022/09/22 09:28:36;;;;;;;1.10;1.00;;;15.20;68.20;;;;;;6223946;23;20048;-82
2022/09/22 09:31:11;;;;;;;2.33;1.70;;;15.30;68.50;;;;;;6196096;23;20011;-82
2022/09/22 09:33:57;;;;;;;5.65;1.50;;;15.40;66.40;;;;;;6224336;23;20305;-83
2022/09/22 09:36:28;;;;;;;1.20;1.02;;;15.20;66.30;;;;;;6229587;23;19997;-83
2022/09/22 09:38:55;;;;;;;1.93;1.73;;;15.20;68.10;;;;;;6200851;23;20327;-83
2022/09/22 09:41:32;;;;;;;2.78;1.00;;;15.20;66.20;;;;;;6226049;23;19996;-82
2022/09/22 09:44:02;;;;;;;1.27;1.13;;;15.10;67.40;;;;;;6222915;23;20078;-82
2022/09/22 09:46:47;;;;;;;1.85;1.00;;;15.20;67.90;;;;;;6195579;23;20031;-83
2022/09/22 09:49:16;;;;;;;1.48;1.15;;;15.50;67.90;;;;;;6196597;23;20007;-83
2022/09/22 09:51:45;;;;;;;1.05;1.00;;;15.60;65.10;;;;;;6221758;23;20104;-81
2022/09/22 09:54:19;;;;;;;2.90;0.85;;;15.60;65.10;;;;;;6222154;23;20119;-82
2022/09/22 09:57:13;;;;;;;2.30;1.42;;;15.40;66.10;;;;;;6198106;23;20067;-83
2022/09/22 10:03:13;;;;;;;1.00;1.00;;;15.50;66.50;;;;;;6220517;23;20047;-82
2022/09/22 10:05:42;;;;;;;1.17;1.08;;;15.60;65.60;;;;;;6219081;23;20004;-81
2022/09/22 10:08:19;;;;;;;1.98;1.15;;;15.80;65.60;;;;;;6196269;23;20028;-83
2022/09/22 10:10:46;;;;;;;1.73;1.10;;;16.20;64.60;;;;;;6223135;23;20004;-83
2022/09/22 10:13:11;;;;;;;2.25;0.90;;;16.60;64.20;;;;;;6222200;23;20009;-82
2022/09/22 10:19:31;;;;;;;1.83;1.10;;;17.00;61.00;;;;;;6232441;23;20089;-82
2022/09/22 10:22:25;;;;;;;1.48;1.02;;;16.80;61.70;;;;;;6228987;22;20040;-81
2022/09/22 10:24:59;;;;;;;0.95;0.95;;;16.50;62.70;;;;;;6196927;23;20003;-82
2022/09/22 10:27:27;;;;;;;1.23;0.90;;;16.50;62.10;;;;;;6196065;23;20012;-82
2022/09/22 10:30:20;;;;;;;2.85;1.10;;;16.50;62.00;;;;;;6222810;23;20001;-83
2022/09/22 10:33:12;;;;;;;1.52;1.02;;;16.50;62.50;;;;;;6221315;23;20013;-83
2022/09/22 10:35:41;;;;;;;0.98;0.90;;;16.70;61.30;;;;;;6221101;23;20020;-83
2022/09/22 10:38:28;;;;;;;0.70;0.68;;;16.70;59.80;;;;;;6197300;23;20032;-82
2022/09/22 10:41:16;;;;;;;1.60;0.88;;;16.60;60.60;;;;;;6223491;23;20004;-82
2022/09/22 10:43:54;;;;;;;0.68;0.68;;;16.70;60.50;;;;;;6197621;23;20004;-81
2022/09/22 10:46:59;;;;;;;2.97;0.90;;;16.70;59.40;;;;;;6225166;23;20024;-83
2022/09/22 10:49:44;;;;;;;1.17;0.75;;;16.60;60.50;;;;;;6199759;22;20003;-83
2022/09/22 10:52:36;;;;;;;1.63;1.00;;;16.70;59.90;;;;;;6197626;23;20009;-82
2022/09/22 10:55:24;;;;;;;1.45;0.70;;;16.90;60.10;;;;;;6224441;23;20013;-82
2022/09/22 10:58:03;;;;;;;0.70;0.70;;;17.00;58.90;;;;;;6226629;23;20007;-84
2022/09/22 11:00:33;;;;;;;1.70;0.70;;;17.00;58.60;;;;;;6223469;23;20095;-84
2022/09/22 11:03:36;;;;;;;2.75;0.95;;;17.10;58.00;;;;;;6198812;23;20001;-83
2022/09/22 11:13:03;;;;;;;1.38;0.82;;;17.20;56.80;;;;;;6225791;23;20024;-84
2022/09/22 11:15:44;;;;;;;1.08;0.57;;;17.20;56.30;;;;;;6198946;23;20008;-84
2022/09/22 11:18:45;;;;;;;1.88;0.70;;;17.10;56.90;;;;;;6201937;23;20034;-84
2022/09/22 11:21:30;;;;;;;1.08;0.88;;;17.10;57.40;;;;;;6175549;23;20212;-83
2022/09/22 11:24:17;;;;;;;1.65;0.80;;;17.70;56.50;;;;;;6230337;22;20439;-84
2022/09/22 11:27:02;;;;;;;1.10;0.52;;;18.50;54.10;;;;;;6235155;23;20004;-84
2022/09/22 11:29:43;;;;;;;0.45;0.45;;;18.90;51.90;;;;;;6221685;23;20019;-83
2022/09/22 11:32:33;;;;;;;0.57;0.57;;;18.90;51.40;;;;;;6235023;23;20012;-82
2022/09/22 11:35:04;;;;;;;0.70;0.55;;;18.70;51.70;;;;;;6197438;23;20013;-83
2022/09/22 11:38:17;;;;;;;0.88;0.60;;;18.40;52.70;;;;;;6200372;23;20331;-83
2022/09/22 11:41:20;;;;;;;0.80;0.75;;;18.20;52.10;;;;;;6193134;23;20015;-83
2022/09/22 11:44:04;;;;;;;0.98;0.60;;;18.10;52.70;;;;;;6226712;23;20008;-84
2022/09/22 11:47:09;;;;;;;1.65;0.95;;;18.00;53.10;;;;;;6226426;23;20411;-84
2022/09/22 11:49:40;;;;;;;0.70;0.70;;;17.90;53.60;;;;;;6235564;23;20098;-84
2022/09/22 11:52:32;;;;;;;1.58;0.70;;;17.90;53.00;;;;;;6236424;23;20007;-83
2022/09/22 11:55:23;;;;;;;0.70;0.70;;;17.70;53.50;;;;;;6235156;22;20016;-83
2022/09/22 11:57:55;;;;;;;0.65;0.60;;;17.70;53.20;;;;;;6235395;23;20004;-84
2022/09/22 12:00:21;;;;;;;1.77;0.70;;;17.70;53.00;;;;;;6233030;23;20001;-84
2022/09/22 12:03:03;;;;;;;0.60;0.60;;;17.70;53.20;;;;;;6209707;23;20050;-83
2022/09/22 12:05:34;;;;;;;0.70;0.68;;;17.80;52.50;;;;;;6209974;23;20005;-82
2022/09/22 12:08:06;;;;;;;0.40;0.40;;;17.70;53.00;;;;;;6205225;23;20013;-79
2022/09/22 12:10:36;;;;;;;2.67;0.60;;;17.70;53.10;;;;;;6201211;23;20001;-79
2022/09/22 12:13:08;;;;;;;3.50;1.38;;;17.50;52.70;;;;;;6200577;23;20004;-78
2022/09/22 12:15:46;;;;;;;0.98;0.93;;;17.30;53.20;;;;;;6206781;23;20067;-79
2022/09/22 12:18:28;;;;;;;1.50;0.90;;;17.20;53.40;;;;;;6203646;23;20001;-78
2022/09/22 12:21:03;;;;;;;2.90;1.05;;;17.00;54.90;;;;;;6229676;23;20001;-78
2022/09/22 12:23:49;;;;;;;2.00;0.75;;;17.10;54.10;;;;;;6194009;23;20007;-80
2022/09/22 12:26:31;;;;;;;1.67;0.88;;;17.20;54.30;;;;;;6193797;23;20436;-79
2022/09/22 12:28:58;;;;;;;1.45;0.65;;;17.30;53.10;;;;;;6192240;23;20084;-79
2022/09/22 12:31:38;;;;;;;0.60;0.60;;;17.40;53.50;;;;;;6192920;23;20009;-79
2022/09/22 12:34:14;;;;;;;2.65;1.00;;;17.70;53.00;;;;;;6192138;23;20001;-79
2022/09/22 12:36:40;;;;;;;0.93;0.75;;;17.50;53.00;;;;;;6188953;23;20353;-79
2022/09/22 12:39:17;;;;;;;0.77;0.70;;;17.30;54.20;;;;;;6187530;23;20001;-79
2022/09/22 12:41:49;;;;;;;0.75;0.60;;;17.30;53.30;;;;;;6214953;23;20009;-80
2022/09/22 12:44:42;;;;;;;0.80;0.80;;;17.50;53.20;;;;;;6190452;23;20013;-80
2022/09/22 12:47:32;;;;;;;2.13;0.80;;;17.70;51.70;;;;;;6211584;23;20001;-80
2022/09/22 12:50:05;;;;;;;0.57;0.55;;;17.90;51.40;;;;;;6193998;23;19997;-80
2022/09/22 12:52:40;;;;;;;2.55;1.13;;;17.90;52.10;;;;;;6193717;23;19997;-80
2022/09/22 12:55:27;;;;;;;0.98;0.90;;;18.00;51.00;;;;;;6192884;23;20004;-80
2022/09/22 12:58:01;;;;;;;0.95;0.90;;;18.20;51.60;;;;;;6190893;23;19997;-79
2022/09/22 13:00:42;;;;;;;0.63;0.63;;;18.30;50.60;;;;;;6190450;23;19997;-80
2022/09/22 13:03:25;;;;;;;0.93;0.80;;;18.20;51.10;;;;;;6188752;23;20396;-79
2022/09/22 13:06:21;;;;;;;0.93;0.60;;;18.20;51.60;;;;;;6189429;23;20320;-79
2022/09/22 13:08:52;;;;;;;1.05;0.60;;;18.30;51.60;;;;;;6219614;23;20069;-80
2022/09/22 13:11:38;;;;;;;3.70;0.80;;;18.40;50.10;;;;;;6236728;23;19996;-79
2022/09/22 13:14:43;;;;;;;0.68;0.68;;;18.40;50.00;;;;;;6226112;23;20281;-80
2022/09/22 13:17:45;;;;;;;0.70;0.70;;;18.30;49.30;;;;;;6192016;23;20092;-80
2022/09/22 13:20:14;;;;;;;1.43;0.83;;;18.10;50.20;;;;;;6221798;23;20627;-80
2022/09/22 13:22:41;;;;;;;0.40;0.40;;;18.10;49.20;;;;;;6225733;23;20009;-81
2022/09/22 13:25:32;;;;;;;1.63;0.60;;;18.10;49.60;;;;;;6221393;23;20000;-79
2022/09/22 13:28:11;;;;;;;0.65;0.65;;;18.30;49.70;;;;;;6216150;23;20007;-79
2022/09/22 13:30:39;;;;;;;0.50;0.50;;;18.60;49.80;;;;;;6226051;23;20096;-79
2022/09/22 13:33:04;;;;;;;1.08;0.80;;;18.90;49.50;;;;;;6228164;23;20008;-79
2022/09/22 13:35:39;;;;;;;1.60;0.90;;;19.40;48.40;;;;;;6231517;22;19988;-80
2022/09/22 13:38:06;;;;;;;0.70;0.70;;;19.40;48.50;;;;;;6231358;23;20035;-79
2022/09/22 13:40:33;;;;;;;2.03;1.00;;;19.20;48.60;;;;;;6226654;23;20000;-79
2022/09/22 13:43:10;;;;;;;3.13;0.70;;;19.10;48.40;;;;;;6223519;23;20001;-79
2022/09/22 13:45:38;;;;;;;1.45;1.10;;;18.90;49.30;;;;;;6222396;23;20008;-79
2022/09/22 13:48:14;;;;;;;2.72;1.10;;;18.90;50.30;;;;;;6219122;23;20427;-79
2022/09/22 13:51:04;;;;;;;1.15;0.80;;;18.80;49.80;;;;;;6219311;23;19997;-79
2022/09/22 13:53:31;;;;;;;4.85;1.00;;;18.50;50.90;;;;;;6219721;23;20001;-78
2022/09/22 13:55:58;;;;;;;1.00;0.70;;;18.50;50.50;;;;;;6193718;23;20005;-80